5 day graph

You are here

Error message

  • Notice: Trying to access array offset on value of type int in DrupalRequestSanitizer::stripDangerousValues() (line 102 of /home/twolittl/public_html/cms/includes/request-sanitizer.inc).
  • Notice: Trying to access array offset on value of type int in DrupalRequestSanitizer::stripDangerousValues() (line 102 of /home/twolittl/public_html/cms/includes/request-sanitizer.inc).
  • Notice: Trying to access array offset on value of type int in DrupalRequestSanitizer::stripDangerousValues() (line 102 of /home/twolittl/public_html/cms/includes/request-sanitizer.inc).
  • Notice: Trying to access array offset on value of type int in DrupalRequestSanitizer::stripDangerousValues() (line 102 of /home/twolittl/public_html/cms/includes/request-sanitizer.inc).
  • Notice: Trying to access array offset on value of type int in DrupalRequestSanitizer::stripDangerousValues() (line 102 of /home/twolittl/public_html/cms/includes/request-sanitizer.inc).
  • Notice: Trying to access array offset on value of type int in DrupalRequestSanitizer::stripDangerousValues() (line 102 of /home/twolittl/public_html/cms/includes/request-sanitizer.inc).
  • Deprecated function: Function get_magic_quotes_gpc() is deprecated in phpMyEdit->get_cgi_var() (line 1773 of /home/twolittl/public_html/phpMyEdit.class.php).
  • Deprecated function: implode(): Passing glue string after array is deprecated. Swap the parameters in drupal_get_feeds() (line 394 of /home/twolittl/public_html/cms/includes/common.inc).

Hive Data

Page: 1 of 16645  Records: 998690

Row Date Time Hive Temp Hive Humidity Outside Temp Outside Humidity Bottom Board Temp Outside Wall Temp Electronics Temp Light Levels inHG Fan Heat Cover Notes
Clear Sorted By: Light Levels ascending, inHG ascending, Row descending
View 836187 Feb 17 2016 6:12:18pm 73.4 44 55.76 58 54.5 56.75 69.8 0 28.45 0 0 0 NA
View 836186 Feb 17 2016 6:11:18pm 73.58 48 55.76 58 54.5 57.2 69.8 0 28.45 0 0 0 NA
View 836185 Feb 17 2016 6:10:18pm 73.58 50 55.76 58 54.5 57.2 69.8 0 28.45 0 0 0 NA
View 836184 Feb 17 2016 6:09:18pm 73.58 51 55.76 58 54.5 57.2 69.8 0 28.45 0 0 0 NA
View 836183 Feb 17 2016 6:08:17pm 73.58 50 55.76 58 54.5 57.2 69.8 0 28.45 0 0 0 NA
View 836182 Feb 17 2016 6:07:17pm 73.58 47 55.76 58 54.5 57.2 69.8 0 28.45 0 0 0 NA
View 836181 Feb 17 2016 6:06:17pm 73.94 44 55.76 58 54.5 57.2 69.8 0 28.45 0 0 0 NA
View 836180 Feb 17 2016 6:05:17pm 73.94 48 55.76 58 54.5 57.2 69.8 0 28.45 0 0 0 NA
View 836179 Feb 17 2016 6:04:17pm 73.94 51 55.76 58 54.5 57.2 69.8 0 28.45 0 0 0 NA
View 836178 Feb 17 2016 6:03:17pm 73.94 50 55.76 58 54.5 57.2 69.8 0 28.45 0 0 0 NA
View 836177 Feb 17 2016 6:02:16pm 73.94 52 55.76 58 54.5 57.2 69.8 0 28.45 0 0 0 NA
View 836176 Feb 17 2016 6:01:16pm 73.94 49 55.76 58 54.5 57.2 69.8 0 28.45 0 0 0 NA
View 836175 Feb 17 2016 6:00:16pm 73.94 50 55.76 58 54.5 57.2 69.8 0 28.45 0 0 0 NA
View 836174 Feb 17 2016 5:59:15pm 73.94 51 55.76 59 54.5 57.2 69.8 0 28.45 0 0 0 NA
View 836173 Feb 17 2016 5:58:15pm 73.94 48 55.76 59 54.5 57.2 69.8 0 28.45 0 0 0 NA
View 836172 Feb 17 2016 5:57:15pm 73.94 50 55.76 58 54.5 57.2 69.8 0 28.45 0 0 0 NA
View 836171 Feb 17 2016 5:56:15pm 73.94 50 55.76 59 54.5 57.2 69.8 0 28.45 0 0 0 NA
View 836170 Feb 17 2016 5:55:15pm 74.12 51 55.76 59 54.5 57.2 71.6 0 28.45 0 0 0 NA
View 836169 Feb 17 2016 5:54:15pm 74.12 47 55.58 59 54.5 57.2 69.8 0 28.45 0 0 0 NA
View 836168 Feb 17 2016 5:53:15pm 74.12 50 55.76 59 54.5 57.2 69.8 0 28.45 0 0 0 NA
View 836166 Feb 17 2016 5:51:14pm 74.12 50 55.76 59 54.5 57.2 69.8 0 28.45 0 0 0 NA
View 836165 Feb 17 2016 5:50:14pm 74.12 48 55.76 59 54.5 57.2 69.8 0 28.45 0 0 0 NA
View 836162 Feb 17 2016 5:47:13pm 74.12 51 55.76 58 54.5 57.2 69.8 0 28.45 0 0 0 NA
View 836158 Feb 17 2016 5:43:13pm 74.48 50 55.76 59 54.5 57.2 69.8 0 28.45 0 0 0 NA
View 836157 Feb 17 2016 5:42:12pm 74.48 51 55.76 59 54.5 57.2 69.8 0 28.45 0 0 0 NA
View 836156 Feb 17 2016 5:41:12pm 74.48 50 55.76 58 54.5 57.2 71.6 0 28.45 0 0 0 NA
View 836155 Feb 17 2016 5:40:12pm 74.66 49 55.76 59 54.5 57.2 71.6 0 28.45 0 0 0 NA
View 836154 Feb 17 2016 5:39:12pm 74.84 48 55.76 60 54.5 57.65 69.8 0 28.45 0 0 0 NA
View 836153 Feb 17 2016 5:38:11pm 74.84 49 55.76 60 54.5 57.65 69.8 0 28.45 0 0 0 NA
View 836150 Feb 17 2016 5:35:11pm 75.02 49 55.76 59 54.95 57.65 71.6 0 28.45 0 0 0 NA
View 836149 Feb 17 2016 5:34:10pm 75.02 51 55.76 59 54.5 57.65 71.6 0 28.45 0 0 0 NA
View 855664 Mar 5 2016 9:28:21pm 73.76 48 57.38 56 57.2 57.65 73.4 0 28.46 0 0 0 NA
View 855660 Mar 5 2016 9:24:20pm 74.12 46 57.56 56 57.2 57.65 73.4 0 28.46 0 0 0 NA
View 855627 Mar 5 2016 8:51:13pm 75.92 52 58.28 54 57.65 59 73.4 0 28.46 0 0 0 NA
View 855625 Mar 5 2016 8:49:13pm 76.1 53 58.28 54 57.65 59 71.6 0 28.46 0 0 0 NA
View 855624 Mar 5 2016 8:48:13pm 75.92 58 58.28 54 57.65 59 73.4 0 28.46 0 0 0 NA
View 855622 Mar 5 2016 8:46:12pm 75.92 52 58.28 55 57.65 59 73.4 0 28.46 0 0 0 NA
View 855619 Mar 5 2016 8:43:12pm 75.92 54 58.28 55 57.65 59 71.6 0 28.46 0 0 0 NA
View 855617 Mar 5 2016 8:41:11pm 75.92 48 58.28 55 57.65 59 73.4 0 28.46 0 0 0 NA
View 855608 Mar 5 2016 8:32:10pm 76.64 51 58.28 55 57.65 59 73.4 0 28.46 0 0 0 NA
View 855605 Mar 5 2016 8:29:09pm 76.28 55 58.46 56 57.65 59 73.4 0 28.46 0 0 0 NA
View 855601 Mar 5 2016 8:25:08pm 76.46 51 58.64 55 57.65 59 73.4 0 28.46 0 0 0 NA
View 855600 Mar 5 2016 8:24:08pm 76.46 50 58.64 55 57.65 59 73.4 0 28.46 0 0 0 NA
View 836191 Feb 17 2016 6:16:19pm 73.04 47 55.76 59 54.5 56.75 69.8 0 28.46 0 0 0 NA
View 836190 Feb 17 2016 6:15:19pm 73.04 48 55.76 58 54.5 56.75 69.8 0 28.46 0 0 0 NA
View 836189 Feb 17 2016 6:14:19pm 73.22 52 55.76 58 54.5 56.75 69.8 0 28.46 0 0 0 NA
View 836188 Feb 17 2016 6:13:19pm 73.22 50 55.76 58 54.5 56.75 69.8 0 28.46 0 0 0 NA
View 836167 Feb 17 2016 5:52:14pm 74.12 51 55.76 59 54.5 57.2 69.8 0 28.46 0 0 0 NA
View 836164 Feb 17 2016 5:49:14pm 74.3 51 55.76 59 54.5 57.2 69.8 0 28.46 0 0 0 NA
View 836163 Feb 17 2016 5:48:13pm 74.3 51 55.76 59 54.5 57.2 69.8 0 28.46 0 0 0 NA
View 836161 Feb 17 2016 5:46:13pm 74.3 50 55.76 59 54.5 57.2 71.6 0 28.46 0 0 0 NA
View 836160 Feb 17 2016 5:45:13pm 74.3 51 55.76 59 54.5 57.2 69.8 0 28.46 0 0 0 NA
View 836159 Feb 17 2016 5:44:12pm 74.3 50 55.76 59 54.5 57.2 69.8 0 28.46 0 0 0 NA
View 836152 Feb 17 2016 5:37:11pm 75.02 49 55.76 59 54.5 57.65 69.8 0 28.46 0 0 0 NA
View 836151 Feb 17 2016 5:36:11pm 75.02 49 55.76 59 54.95 57.65 71.6 0 28.46 0 0 0 NA
View 836148 Feb 17 2016 5:33:10pm 75.02 52 55.76 59 54.95 57.65 71.6 0 28.46 0 0 0 NA
View 836147 Feb 17 2016 5:32:10pm 75.02 50 55.76 59 54.95 57.65 71.6 0 28.46 0 0 0 NA
View 836146 Feb 17 2016 5:31:10pm 75.2 54 55.76 59 54.95 57.65 71.6 0 28.46 0 0 0 NA
View 836145 Feb 17 2016 5:30:10pm 75.02 51 55.76 59 54.95 57.65 71.6 0 28.46 0 0 0 NA
View 836144 Feb 17 2016 5:29:09pm 75.02 51 55.76 59 54.95 57.65 71.6 0 28.46 0 0 0 NA